createdAt,value
2018-07-20T00:00:07.681Z,1008.90
2018-07-20T00:01:07.704Z,1008.88
2018-07-20T00:02:07.725Z,1008.86
2018-07-20T00:03:07.751Z,1008.88
2018-07-20T00:04:07.773Z,1008.84
2018-07-20T00:05:07.795Z,1008.86
2018-07-20T00:06:07.824Z,1008.82
2018-07-20T00:07:07.843Z,1008.90
2018-07-20T00:08:07.892Z,1008.86
2018-07-20T00:09:07.888Z,1008.86
2018-07-20T00:10:07.912Z,1008.86
2018-07-20T00:11:07.935Z,1008.90
2018-07-20T00:12:07.959Z,1008.90
2018-07-20T00:13:07.984Z,1008.87
2018-07-20T00:14:08.006Z,1008.84
2018-07-20T00:15:08.029Z,1008.87
2018-07-20T00:16:08.058Z,1008.80
2018-07-20T00:17:08.078Z,1008.85
2018-07-20T00:18:08.100Z,1008.84
2018-07-20T00:19:08.125Z,1008.84
2018-07-20T00:20:08.147Z,1008.79
2018-07-20T00:21:08.172Z,1008.83
2018-07-20T00:22:08.240Z,1008.81
2018-07-20T00:23:08.223Z,1008.84
2018-07-20T00:24:08.240Z,1008.80
2018-07-20T00:25:08.263Z,1008.84
2018-07-20T00:26:08.290Z,1008.84
2018-07-20T00:27:08.310Z,1008.79
2018-07-20T00:28:08.334Z,1008.78
2018-07-20T00:29:08.360Z,1008.78
2018-07-20T00:30:08.380Z,1008.75
2018-07-20T00:31:08.408Z,1008.76
2018-07-20T00:32:08.430Z,1008.72
2018-07-20T00:33:08.453Z,1008.78
2018-07-20T00:34:08.475Z,1008.73
2018-07-20T00:35:08.499Z,1008.75
2018-07-20T00:36:08.523Z,1008.74
2018-07-20T00:37:08.544Z,1008.71
2018-07-20T00:38:08.571Z,1008.69
2018-07-20T00:39:08.595Z,1008.68
2018-07-20T00:40:11.648Z,1008.65
2018-07-20T00:41:08.641Z,1008.61
2018-07-20T00:42:08.665Z,1008.62
2018-07-20T00:43:08.689Z,1008.62
2018-07-20T00:44:08.712Z,1008.63
2018-07-20T00:45:08.734Z,1008.55
2018-07-20T00:46:08.759Z,1008.56
2018-07-20T00:47:08.780Z,1008.54
2018-07-20T00:48:08.806Z,1008.51
2018-07-20T00:49:08.827Z,1008.49
2018-07-20T00:50:08.853Z,1008.48
2018-07-20T00:51:08.877Z,1008.46
2018-07-20T00:52:08.897Z,1008.50
2018-07-20T00:53:08.920Z,1008.45
2018-07-20T00:54:08.948Z,1008.47
2018-07-20T00:55:08.967Z,1008.45
2018-07-20T00:56:08.993Z,1008.39
2018-07-20T00:57:09.016Z,1008.39
2018-07-20T00:58:09.038Z,1008.39
2018-07-20T00:59:09.065Z,1008.41
2018-07-20T01:00:09.084Z,1008.38
2018-07-20T01:01:09.109Z,1008.41
2018-07-20T01:02:11.758Z,1008.35
2018-07-20T01:03:09.661Z,1008.38
2018-07-20T01:04:12.409Z,1008.39
2018-07-20T01:05:11.825Z,1008.39
2018-07-20T01:06:11.848Z,1008.33
2018-07-20T01:07:11.872Z,1008.34
2018-07-20T01:08:09.269Z,1008.36
2018-07-20T01:09:11.914Z,1008.31
2018-07-20T01:11:11.964Z,1008.25
2018-07-20T01:12:09.360Z,1008.25
2018-07-20T01:13:09.383Z,1008.27
2018-07-20T01:14:09.408Z,1008.24
2018-07-20T01:15:09.433Z,1008.24
2018-07-20T01:16:09.456Z,1008.28
2018-07-20T01:17:09.478Z,1008.27
2018-07-20T01:18:09.504Z,1008.26
2018-07-20T01:19:09.522Z,1008.29
2018-07-20T01:20:09.547Z,1008.29
2018-07-20T01:21:09.569Z,1008.28
2018-07-20T01:22:09.597Z,1008.26
2018-07-20T01:23:09.615Z,1008.29
2018-07-20T01:24:09.638Z,1008.24
2018-07-20T01:25:09.660Z,1008.23
2018-07-20T01:26:09.688Z,1008.22
2018-07-20T01:27:09.706Z,1008.24
2018-07-20T01:28:09.732Z,1008.24
2018-07-20T01:29:09.755Z,1008.20
2018-07-20T01:30:09.775Z,1008.21
2018-07-20T01:31:09.799Z,1008.21
2018-07-20T01:32:09.825Z,1008.19
2018-07-20T01:33:09.845Z,1008.18
2018-07-20T01:34:09.868Z,1008.23
2018-07-20T01:35:09.893Z,1008.21
2018-07-20T01:36:09.918Z,1008.24
2018-07-20T01:37:09.940Z,1008.21
2018-07-20T01:38:09.960Z,1008.25
2018-07-20T01:39:09.989Z,1008.27
2018-07-20T01:40:10.010Z,1008.26
2018-07-20T01:41:10.033Z,1008.27
2018-07-20T01:42:10.057Z,1008.22
2018-07-20T01:43:10.076Z,1008.24
2018-07-20T01:44:10.099Z,1008.26
2018-07-20T01:45:10.127Z,1008.19
2018-07-20T01:46:10.148Z,1008.23
2018-07-20T01:47:10.168Z,1008.25
2018-07-20T01:48:10.193Z,1008.21
2018-07-20T01:49:10.218Z,1008.22
2018-07-20T01:50:10.239Z,1008.24
2018-07-20T01:51:10.264Z,1008.24
2018-07-20T01:52:10.290Z,1008.23
2018-07-20T01:53:10.312Z,1008.23
2018-07-20T01:54:10.332Z,1008.25
2018-07-20T01:55:10.353Z,1008.21
2018-07-20T01:56:10.376Z,1008.21
2018-07-20T01:57:10.398Z,1008.24
2018-07-20T01:58:10.424Z,1008.24
2018-07-20T01:59:10.445Z,1008.22
2018-07-20T02:00:10.470Z,1008.24
2018-07-20T02:01:10.493Z,1008.24
2018-07-20T02:02:10.516Z,1008.24
2018-07-20T02:03:10.543Z,1008.24
2018-07-20T02:04:10.562Z,1008.27
2018-07-20T02:05:10.582Z,1008.24
2018-07-20T02:06:10.604Z,1008.26
2018-07-20T02:07:10.625Z,1008.29
2018-07-20T02:08:10.649Z,1008.23
2018-07-20T02:09:10.672Z,1008.24
2018-07-20T02:10:10.694Z,1008.23
2018-07-20T02:11:10.716Z,1008.25
2018-07-20T02:12:10.738Z,1008.24
2018-07-20T02:13:10.759Z,1008.26
2018-07-20T02:14:10.781Z,1008.22
2018-07-20T02:15:10.801Z,1008.17
2018-07-20T02:16:10.823Z,1008.21
2018-07-20T02:17:12.262Z,1008.17
2018-07-20T02:19:11.511Z,1008.17
2018-07-20T02:23:13.602Z,1008.14
2018-07-20T02:24:14.235Z,1008.18
2018-07-20T02:25:15.067Z,1008.17
2018-07-20T02:52:11.941Z,1007.96
2018-07-20T02:54:11.690Z,1007.95
2018-07-20T03:01:12.745Z,1007.98
2018-07-20T03:04:11.921Z,1007.92
2018-07-20T03:11:12.081Z,1007.87
2018-07-20T03:12:12.097Z,1007.87
2018-07-20T03:14:12.138Z,1007.88
2018-07-20T03:24:12.777Z,1007.82
2018-07-20T03:29:15.091Z,1007.81
2018-07-20T03:30:12.490Z,1007.82
2018-07-20T03:31:12.516Z,1007.82
2018-07-20T03:32:12.540Z,1007.80
2018-07-20T03:33:12.558Z,1007.79
2018-07-20T03:34:12.585Z,1007.75
2018-07-20T03:35:12.604Z,1007.77
2018-07-20T03:36:12.628Z,1007.79
2018-07-20T03:37:12.651Z,1007.80
2018-07-20T03:38:12.671Z,1007.82
2018-07-20T03:39:12.699Z,1007.79
2018-07-20T03:40:12.718Z,1007.78
2018-07-20T03:41:12.738Z,1007.78
2018-07-20T03:42:12.764Z,1007.81
2018-07-20T03:43:12.783Z,1007.82
2018-07-20T03:44:12.809Z,1007.79
2018-07-20T03:45:12.827Z,1007.78
2018-07-20T03:46:12.853Z,1007.83
2018-07-20T03:47:12.874Z,1007.79
2018-07-20T03:48:12.897Z,1007.80
2018-07-20T03:49:12.920Z,1007.75
2018-07-20T03:50:12.940Z,1007.78
2018-07-20T03:51:12.964Z,1007.78
2018-07-20T03:52:13.026Z,1007.75
2018-07-20T03:53:13.008Z,1007.78
2018-07-20T03:54:13.030Z,1007.72
2018-07-20T03:55:13.055Z,1007.72
2018-07-20T03:56:13.079Z,1007.73
2018-07-20T03:57:13.098Z,1007.72
2018-07-20T03:58:13.120Z,1007.75
2018-07-20T03:59:13.145Z,1007.74
2018-07-20T04:00:13.164Z,1007.76
2018-07-20T04:01:13.188Z,1007.73
2018-07-20T04:02:13.219Z,1007.73
2018-07-20T04:03:13.237Z,1007.74
2018-07-20T04:04:13.255Z,1007.73
2018-07-20T04:05:13.275Z,1007.72
2018-07-20T04:06:13.297Z,1007.72
2018-07-20T04:07:13.322Z,1007.74
2018-07-20T04:08:13.343Z,1007.76
2018-07-20T04:09:13.365Z,1007.76
2018-07-20T04:10:13.445Z,1007.78
2018-07-20T04:11:13.411Z,1007.75
2018-07-20T04:12:13.432Z,1007.70
2018-07-20T04:13:13.505Z,1007.69
2018-07-20T04:14:13.481Z,1007.68
2018-07-20T04:15:13.502Z,1007.68
2018-07-20T04:16:13.522Z,1007.69
2018-07-20T04:17:13.543Z,1007.67
2018-07-20T04:18:13.568Z,1007.67
2018-07-20T04:19:13.591Z,1007.69
2018-07-20T04:20:13.611Z,1007.71
2018-07-20T04:21:13.635Z,1007.68
2018-07-20T04:22:13.658Z,1007.74
2018-07-20T04:23:13.679Z,1007.73
2018-07-20T04:24:13.705Z,1007.76
2018-07-20T04:25:13.722Z,1007.73
2018-07-20T04:26:13.745Z,1007.73
2018-07-20T04:27:13.769Z,1007.76
2018-07-20T04:28:13.793Z,1007.72
2018-07-20T04:29:13.811Z,1007.73
2018-07-20T04:30:13.835Z,1007.68
2018-07-20T04:31:13.859Z,1007.72
2018-07-20T04:32:13.881Z,1007.69
2018-07-20T04:33:13.902Z,1007.68
2018-07-20T04:34:13.928Z,1007.70
2018-07-20T04:35:13.946Z,1007.66
2018-07-20T04:36:13.972Z,1007.64
2018-07-20T04:37:13.991Z,1007.63
2018-07-20T04:38:14.017Z,1007.61
2018-07-20T04:39:14.039Z,1007.62
2018-07-20T04:40:14.062Z,1007.66
2018-07-20T04:41:14.083Z,1007.64
2018-07-20T04:42:14.103Z,1007.64
2018-07-20T04:43:14.126Z,1007.62
2018-07-20T04:44:14.151Z,1007.64
2018-07-20T04:45:14.173Z,1007.66
2018-07-20T04:46:14.192Z,1007.68
2018-07-20T04:47:14.218Z,1007.70
2018-07-20T04:48:14.239Z,1007.72
2018-07-20T04:49:14.260Z,1007.68
2018-07-20T04:50:14.318Z,1007.68
2018-07-20T04:51:14.308Z,1007.72
2018-07-20T04:52:14.328Z,1007.76
2018-07-20T04:53:14.353Z,1007.74
2018-07-20T04:54:14.374Z,1007.77
2018-07-20T04:55:14.398Z,1007.76
2018-07-20T04:56:14.419Z,1007.78
2018-07-20T04:57:14.441Z,1007.78
2018-07-20T04:58:14.463Z,1007.80
2018-07-20T04:59:14.488Z,1007.79
2018-07-20T05:00:14.507Z,1007.80
2018-07-20T05:01:14.529Z,1007.78
2018-07-20T05:02:14.553Z,1007.74
2018-07-20T05:03:14.574Z,1007.81
2018-07-20T05:04:14.597Z,1007.77
2018-07-20T05:05:14.619Z,1007.76
2018-07-20T05:06:14.645Z,1007.77
2018-07-20T05:07:14.673Z,1007.80
2018-07-20T05:08:14.690Z,1007.73
2018-07-20T05:09:14.709Z,1007.72
2018-07-20T05:10:14.733Z,1007.75
2018-07-20T05:11:14.763Z,1007.74
2018-07-20T05:12:14.781Z,1007.73
2018-07-20T05:13:14.803Z,1007.75
2018-07-20T05:14:14.822Z,1007.74
2018-07-20T05:15:14.847Z,1007.71
2018-07-20T05:16:14.868Z,1007.72
2018-07-20T05:17:14.893Z,1007.68
2018-07-20T05:18:14.913Z,1007.63
2018-07-20T05:19:14.938Z,1007.64
2018-07-20T05:20:14.961Z,1007.63
2018-07-20T05:21:14.981Z,1007.62
2018-07-20T05:22:15.007Z,1007.63
2018-07-20T05:23:15.028Z,1007.62
2018-07-20T05:24:15.107Z,1007.62
2018-07-20T05:25:15.075Z,1007.63
2018-07-20T05:26:15.096Z,1007.63
2018-07-20T05:27:15.122Z,1007.65
2018-07-20T05:28:15.145Z,1007.61
2018-07-20T05:29:15.164Z,1007.64
2018-07-20T05:30:15.188Z,1007.66
2018-07-20T05:31:15.273Z,1007.62
2018-07-20T05:32:15.235Z,1007.69
2018-07-20T05:33:15.259Z,1007.65
2018-07-20T05:34:15.280Z,1007.60
2018-07-20T05:35:15.302Z,1007.65
2018-07-20T05:36:15.797Z,1007.66
2018-07-20T05:37:15.578Z,1007.69
2018-07-20T05:38:15.793Z,1007.69
2018-07-20T05:39:15.397Z,1007.68
2018-07-20T05:40:15.421Z,1007.69
2018-07-20T05:41:15.442Z,1007.69
2018-07-20T05:42:15.463Z,1007.73
2018-07-20T05:43:15.498Z,1007.70
2018-07-20T05:44:15.513Z,1007.68
2018-07-20T05:45:15.533Z,1007.69
2018-07-20T05:46:15.558Z,1007.73
2018-07-20T05:47:15.579Z,1007.72
2018-07-20T05:48:15.604Z,1007.70
2018-07-20T05:49:15.626Z,1007.76
2018-07-20T05:50:15.654Z,1007.77
2018-07-20T05:51:15.679Z,1007.75
2018-07-20T05:52:15.748Z,1007.72
2018-07-20T05:53:15.722Z,1007.75
2018-07-20T05:54:15.742Z,1007.75
2018-07-20T05:55:15.767Z,1007.68
2018-07-20T05:56:15.791Z,1007.71
2018-07-20T05:57:15.814Z,1007.78
2018-07-20T05:58:15.836Z,1007.75
2018-07-20T05:59:15.860Z,1007.73
2018-07-20T06:00:15.886Z,1007.71
2018-07-20T06:01:15.909Z,1007.74
2018-07-20T06:02:15.935Z,1007.72
2018-07-20T06:03:15.955Z,1007.75
2018-07-20T06:04:15.980Z,1007.76
2018-07-20T06:05:16.007Z,1007.76
2018-07-20T06:06:16.036Z,1007.76
2018-07-20T06:07:16.051Z,1007.78
2018-07-20T06:08:16.079Z,1007.76
2018-07-20T06:09:16.103Z,1007.69
2018-07-20T06:10:16.126Z,1007.72
2018-07-20T06:11:16.152Z,1007.72
2018-07-20T06:12:16.179Z,1007.72
2018-07-20T06:13:16.197Z,1007.72
2018-07-20T06:14:16.334Z,1007.72
2018-07-20T06:15:16.249Z,1007.73
2018-07-20T06:16:16.271Z,1007.77
2018-07-20T06:17:16.297Z,1007.72
2018-07-20T06:18:16.324Z,1007.71
2018-07-20T06:19:16.349Z,1007.76
2018-07-20T06:20:16.377Z,1007.76
2018-07-20T06:21:16.425Z,1007.78
2018-07-20T06:22:16.422Z,1007.79
2018-07-20T06:23:16.450Z,1007.77
2018-07-20T06:25:04.419Z,1007.82
2018-07-20T06:26:06.865Z,1007.86
2018-07-20T06:27:06.888Z,1007.83
2018-07-20T06:28:04.287Z,1007.83
2018-07-20T06:29:04.317Z,1007.79
2018-07-20T06:30:04.337Z,1007.80
2018-07-20T06:31:04.372Z,1007.83
2018-07-20T06:35:04.481Z,1007.81
2018-07-20T06:36:04.902Z,1007.80
2018-07-20T06:38:07.166Z,1007.77
2018-07-20T06:39:08.402Z,1007.69
2018-07-20T06:54:18.795Z,1007.83
2018-07-20T06:55:18.820Z,1007.77
2018-07-20T06:56:18.840Z,1007.74
2018-07-20T06:57:36.882Z,1007.85
2018-07-20T06:58:19.702Z,1007.89
2018-07-20T06:59:20.127Z,1007.81
2018-07-20T07:01:18.965Z,1007.83
2018-07-20T07:03:20.429Z,1007.80
2018-07-20T07:04:19.040Z,1007.85
2018-07-20T07:05:19.068Z,1007.83
2018-07-20T07:06:19.094Z,1007.82
2018-07-20T07:07:16.491Z,1007.84
2018-07-20T07:08:16.512Z,1007.80
2018-07-20T07:09:16.545Z,1007.81
2018-07-20T07:10:16.566Z,1007.82
2018-07-20T07:11:16.590Z,1007.85
2018-07-20T07:12:16.614Z,1007.83
2018-07-20T07:13:16.639Z,1007.85
2018-07-20T07:14:16.666Z,1007.87
2018-07-20T07:15:16.713Z,1007.87
2018-07-20T07:16:16.717Z,1007.92
2018-07-20T07:17:16.989Z,1007.98
2018-07-20T07:18:16.767Z,1007.95
2018-07-20T07:19:16.793Z,1008.02
2018-07-20T07:20:16.815Z,1008.04
2018-07-20T07:21:16.846Z,1008.14
2018-07-20T07:22:16.924Z,1008.16
2018-07-20T07:23:16.897Z,1008.14
2018-07-20T07:24:16.919Z,1008.20
2018-07-20T07:25:16.947Z,1008.23
2018-07-20T07:26:16.974Z,1008.28
2018-07-20T07:27:17.000Z,1008.32
2018-07-20T07:28:17.027Z,1008.49
2018-07-20T07:29:17.149Z,1008.53
2018-07-20T07:30:17.080Z,1008.52
2018-07-20T07:31:17.108Z,1008.65
2018-07-20T07:32:17.134Z,1008.65
2018-07-20T07:33:17.161Z,1008.63
2018-07-20T07:34:17.190Z,1008.58
2018-07-20T07:35:17.216Z,1008.54
2018-07-20T07:36:17.242Z,1008.48
2018-07-20T07:37:17.269Z,1008.40
2018-07-20T07:38:17.294Z,1008.36
2018-07-20T07:39:17.324Z,1008.32
2018-07-20T07:40:17.351Z,1008.33
2018-07-20T07:41:17.375Z,1008.21
2018-07-20T07:42:17.555Z,1008.20
2018-07-20T07:43:17.434Z,1008.17
2018-07-20T07:44:17.457Z,1008.19
2018-07-20T07:45:17.489Z,1008.19
2018-07-20T07:46:17.517Z,1008.18
2018-07-20T07:47:17.545Z,1008.14
2018-07-20T07:48:17.574Z,1008.08
2018-07-20T07:49:17.655Z,1008.05
2018-07-20T07:50:17.630Z,1008.12
2018-07-20T07:51:17.656Z,1008.08
2018-07-20T07:52:17.684Z,1008.10
2018-07-20T07:53:17.710Z,1008.10
2018-07-20T07:54:17.743Z,1008.04
2018-07-20T07:55:17.770Z,1008.05
2018-07-20T07:56:17.796Z,1008.04
2018-07-20T07:57:17.824Z,1008.09
2018-07-20T07:58:17.853Z,1008.11
2018-07-20T07:59:17.883Z,1008.12
2018-07-20T08:00:17.911Z,1008.11
2018-07-20T08:01:17.940Z,1008.04
2018-07-20T08:02:17.972Z,1008.08
2018-07-20T08:03:17.999Z,1008.04
2018-07-20T08:04:18.025Z,1008.07
2018-07-20T08:05:18.057Z,1008.06
2018-07-20T08:06:18.087Z,1008.03
2018-07-20T08:07:18.115Z,1008.00
2018-07-20T08:08:18.143Z,1007.99
2018-07-20T08:09:18.174Z,1008.01
2018-07-20T08:10:18.209Z,1008.00
2018-07-20T08:11:18.234Z,1008.00
2018-07-20T08:12:18.260Z,1007.98
2018-07-20T08:13:18.302Z,1008.01
2018-07-20T08:14:18.323Z,1008.01
2018-07-20T08:15:18.350Z,1008.04
2018-07-20T08:16:18.380Z,1007.98
2018-07-20T08:17:18.415Z,1007.98
2018-07-20T08:18:18.442Z,1008.00
2018-07-20T08:19:18.472Z,1007.97
2018-07-20T08:20:18.503Z,1007.96
2018-07-20T08:21:18.535Z,1007.97
2018-07-20T08:22:18.563Z,1008.00
2018-07-20T08:23:18.595Z,1008.05
2018-07-20T08:24:18.621Z,1008.08
2018-07-20T08:25:18.655Z,1008.03
2018-07-20T08:26:18.688Z,1008.00
2018-07-20T08:27:18.713Z,1007.98
2018-07-20T08:28:18.743Z,1007.97
2018-07-20T08:29:18.778Z,1007.90
2018-07-20T08:30:18.804Z,1007.92
2018-07-20T08:31:18.838Z,1007.91
2018-07-20T08:32:18.868Z,1007.88
2018-07-20T08:33:18.895Z,1007.88
2018-07-20T08:34:18.927Z,1007.83
2018-07-20T08:35:18.959Z,1007.84
2018-07-20T08:36:18.988Z,1007.86
2018-07-20T08:37:19.021Z,1007.87
2018-07-20T08:38:19.052Z,1007.82
2018-07-20T08:39:19.084Z,1007.85
2018-07-20T08:41:19.237Z,1007.84
2018-07-20T08:42:19.178Z,1007.82
2018-07-20T08:43:19.212Z,1007.80
2018-07-20T08:44:19.241Z,1007.81
2018-07-20T08:45:19.272Z,1007.82
2018-07-20T08:46:19.303Z,1007.82
2018-07-20T08:47:19.332Z,1007.80
2018-07-20T08:48:19.363Z,1007.80
2018-07-20T08:49:19.398Z,1007.83
2018-07-20T08:50:19.432Z,1007.80
2018-07-20T08:51:19.458Z,1007.86
2018-07-20T08:53:19.528Z,1007.89
2018-07-20T08:54:19.556Z,1007.91
2018-07-20T08:55:19.588Z,1007.85
2018-07-20T08:56:19.619Z,1007.81
2018-07-20T08:57:19.653Z,1007.87
2018-07-20T08:58:19.684Z,1007.84
2018-07-20T08:59:19.716Z,1007.82
2018-07-20T09:00:19.748Z,1007.83
2018-07-20T09:01:19.784Z,1007.87
2018-07-20T09:02:19.818Z,1007.89
2018-07-20T09:03:19.850Z,1007.88
2018-07-20T09:04:19.884Z,1007.85
2018-07-20T09:05:19.917Z,1007.85
2018-07-20T09:06:19.949Z,1007.81
2018-07-20T09:07:19.981Z,1007.85
2018-07-20T09:08:20.015Z,1007.85
2018-07-20T09:09:20.045Z,1007.85
2018-07-20T09:10:20.077Z,1007.79
2018-07-20T09:11:20.114Z,1007.81
2018-07-20T09:12:20.146Z,1007.79
2018-07-20T09:13:20.180Z,1007.80
2018-07-20T09:14:20.216Z,1007.80
2018-07-20T09:15:20.246Z,1007.78
2018-07-20T09:16:20.280Z,1007.79
2018-07-20T09:17:20.313Z,1007.74
2018-07-20T09:18:20.346Z,1007.72
2018-07-20T09:19:20.380Z,1007.72
2018-07-20T09:20:20.413Z,1007.71
2018-07-20T09:21:20.448Z,1007.75
2018-07-20T09:22:20.477Z,1007.72
2018-07-20T09:23:20.514Z,1007.76
2018-07-20T09:24:20.545Z,1007.76
2018-07-20T09:25:20.577Z,1007.77
2018-07-20T09:26:20.615Z,1007.76
2018-07-20T09:27:23.308Z,1007.75
2018-07-20T09:28:20.697Z,1007.78
2018-07-20T09:29:20.710Z,1007.72
2018-07-20T09:30:20.747Z,1007.71
2018-07-20T09:31:20.778Z,1007.74
2018-07-20T09:32:20.814Z,1007.76
2018-07-20T09:33:23.884Z,1007.82
2018-07-20T09:38:41.771Z,1007.86
2018-07-20T09:40:41.848Z,1007.86
2018-07-20T09:42:21.807Z,1007.88
2018-07-20T09:45:04.430Z,1007.88
2018-07-20T09:46:04.462Z,1007.88
2018-07-20T09:47:04.493Z,1007.86
2018-07-20T09:48:04.527Z,1007.87
2018-07-20T09:49:04.641Z,1007.90
2018-07-20T09:50:04.595Z,1007.92
2018-07-20T09:51:04.631Z,1007.91
2018-07-20T09:52:04.665Z,1007.91
2018-07-20T09:54:04.732Z,1007.87
2018-07-20T09:55:07.389Z,1007.89
2018-07-20T09:56:04.802Z,1007.88
2018-07-20T09:57:04.828Z,1007.92
2018-07-20T09:58:04.865Z,1007.87
2018-07-20T09:59:04.897Z,1007.85
2018-07-20T10:00:04.931Z,1007.88
2018-07-20T10:01:04.963Z,1007.90
2018-07-20T10:02:04.998Z,1007.87
2018-07-20T10:03:05.028Z,1007.90
2018-07-20T10:04:05.063Z,1007.93
2018-07-20T10:05:05.163Z,1007.91
2018-07-20T10:06:05.128Z,1007.89
2018-07-20T10:07:05.160Z,1007.86
2018-07-20T10:08:05.194Z,1007.83
2018-07-20T10:09:05.225Z,1007.85
2018-07-20T10:10:05.258Z,1007.80
2018-07-20T10:11:05.294Z,1007.80
2018-07-20T10:12:05.324Z,1007.80
2018-07-20T10:13:05.358Z,1007.87
2018-07-20T10:14:05.389Z,1007.85
2018-07-20T10:15:05.422Z,1007.85
2018-07-20T10:16:05.456Z,1007.83
2018-07-20T10:17:05.488Z,1007.88
2018-07-20T10:18:05.523Z,1007.86
2018-07-20T10:19:05.588Z,1007.86
2018-07-20T10:20:05.593Z,1007.87
2018-07-20T10:21:05.625Z,1007.84
2018-07-20T10:22:05.655Z,1007.83
2018-07-20T10:23:05.688Z,1007.76
2018-07-20T10:24:05.721Z,1007.76
2018-07-20T10:25:05.750Z,1007.82
2018-07-20T10:26:05.786Z,1007.79
2018-07-20T10:27:05.820Z,1007.74
2018-07-20T10:28:05.851Z,1007.56
2018-07-20T10:29:05.887Z,1007.43
2018-07-20T10:30:05.918Z,1007.46
2018-07-20T10:31:05.951Z,1007.43
2018-07-20T10:32:05.990Z,1007.48
2018-07-20T10:33:06.017Z,1007.62
2018-07-20T10:34:06.049Z,1007.64
2018-07-20T10:35:06.085Z,1007.64
2018-07-20T10:36:06.122Z,1007.69
2018-07-20T10:37:06.154Z,1007.75
2018-07-20T10:38:06.181Z,1007.69
2018-07-20T10:39:06.213Z,1007.59
2018-07-20T10:40:06.247Z,1007.71
2018-07-20T10:41:06.277Z,1007.81
2018-07-20T10:42:06.311Z,1007.73
2018-07-20T10:43:06.350Z,1007.75
2018-07-20T10:44:06.378Z,1007.81
2018-07-20T10:45:06.411Z,1007.79
2018-07-20T10:46:06.440Z,1007.84
2018-07-20T10:47:06.475Z,1007.83
2018-07-20T10:48:06.508Z,1007.82
2018-07-20T10:49:06.540Z,1007.81
2018-07-20T10:50:06.575Z,1007.82
2018-07-20T10:51:06.609Z,1007.78
2018-07-20T10:52:06.705Z,1007.58
2018-07-20T10:53:06.675Z,1007.55
2018-07-20T10:54:06.706Z,1007.36
2018-07-20T10:55:06.739Z,1007.45
2018-07-20T10:56:06.775Z,1007.35
2018-07-20T10:57:06.806Z,1007.43
2018-07-20T10:58:06.837Z,1007.35
2018-07-20T10:59:06.872Z,1007.10
2018-07-20T11:00:06.901Z,1006.98
2018-07-20T11:01:06.936Z,1007.22
2018-07-20T11:02:06.972Z,1007.11
2018-07-20T11:03:07.001Z,1007.04
2018-07-20T11:04:07.035Z,1007.04
2018-07-20T11:05:07.102Z,1007.21
2018-07-20T11:06:07.099Z,1007.22
2018-07-20T11:07:07.134Z,1007.25
2018-07-20T11:08:07.167Z,1007.39
2018-07-20T11:09:07.198Z,1007.45
2018-07-20T11:10:07.232Z,1007.40
2018-07-20T11:11:07.263Z,1007.52
2018-07-20T11:12:07.293Z,1007.46
2018-07-20T11:13:07.327Z,1007.41
2018-07-20T11:14:07.361Z,1007.50
2018-07-20T11:15:07.391Z,1007.58
2018-07-20T11:16:07.420Z,1007.42
2018-07-20T11:17:07.453Z,1007.42
2018-07-20T11:18:07.488Z,1007.44
2018-07-20T11:19:07.520Z,1007.46
2018-07-20T11:20:07.548Z,1007.59
2018-07-20T11:21:07.583Z,1007.64
2018-07-20T11:22:07.616Z,1007.68
2018-07-20T11:23:07.646Z,1007.70
2018-07-20T11:24:07.677Z,1007.73
2018-07-20T11:25:07.709Z,1007.73
2018-07-20T11:26:07.741Z,1007.73
2018-07-20T11:27:07.774Z,1007.81
2018-07-20T11:28:07.829Z,1007.81
2018-07-20T11:29:07.841Z,1007.83
2018-07-20T11:30:07.881Z,1007.82
2018-07-20T11:31:07.908Z,1007.71
2018-07-20T11:32:07.938Z,1007.72
2018-07-20T11:33:07.970Z,1007.56
2018-07-20T11:34:08.005Z,1007.39
2018-07-20T11:35:08.038Z,1007.66
2018-07-20T11:36:08.066Z,1007.73
2018-07-20T11:37:08.101Z,1007.71
2018-07-20T11:38:08.137Z,1007.83
2018-07-20T11:39:08.167Z,1008.03
2018-07-20T11:40:08.196Z,1008.12
2018-07-20T11:41:08.229Z,1008.27
2018-07-20T11:42:08.264Z,1008.27
2018-07-20T11:43:08.298Z,1007.98
2018-07-20T11:44:08.329Z,1006.41
2018-07-20T11:45:08.362Z,1007.00
2018-07-20T11:46:08.395Z,1007.54
2018-07-20T11:47:08.427Z,1008.35
2018-07-20T11:48:08.457Z,1007.78
2018-07-20T11:49:08.489Z,1008.48
2018-07-20T11:50:08.522Z,1008.68
2018-07-20T11:51:08.556Z,1008.89
2018-07-20T11:52:08.585Z,1006.40
2018-07-20T11:53:08.621Z,1007.33
2018-07-20T11:54:08.653Z,1006.42
2018-07-20T11:55:08.682Z,1006.31
2018-07-20T11:56:08.717Z,1007.23
2018-07-20T11:57:08.749Z,1007.38
2018-07-20T11:58:08.779Z,1006.31
2018-07-20T11:59:08.810Z,1008.32
2018-07-20T12:00:08.840Z,1007.44
2018-07-20T12:01:08.875Z,1006.16
2018-07-20T12:02:08.906Z,1006.12
2018-07-20T12:03:08.939Z,1006.23
2018-07-20T12:04:08.970Z,1006.87
2018-07-20T12:05:09.003Z,1006.05
2018-07-20T12:06:09.034Z,1006.02
2018-07-20T12:07:09.064Z,1007.12
2018-07-20T12:08:09.094Z,1006.34
2018-07-20T12:09:09.125Z,1006.13
2018-07-20T12:10:09.158Z,1006.08
2018-07-20T12:11:09.190Z,1006.09
2018-07-20T12:12:09.217Z,1006.95
2018-07-20T12:13:09.251Z,1006.75
2018-07-20T12:14:09.283Z,1006.67
2018-07-20T12:15:09.312Z,1006.22
2018-07-20T12:16:09.344Z,1006.37
2018-07-20T12:17:09.372Z,1006.18
2018-07-20T12:18:09.405Z,1006.06
2018-07-20T12:19:09.434Z,1006.19
2018-07-20T12:20:09.467Z,1006.13
2018-07-20T12:21:09.496Z,1006.22
2018-07-20T12:22:09.529Z,1006.17
2018-07-20T12:23:09.559Z,1006.11
2018-07-20T12:24:09.592Z,1006.14
2018-07-20T12:25:09.622Z,1006.11
2018-07-20T12:26:09.651Z,1006.18
2018-07-20T12:27:09.681Z,1006.16
2018-07-20T12:28:09.714Z,1006.17
2018-07-20T12:29:09.740Z,1006.14
2018-07-20T12:30:09.771Z,1005.98
2018-07-20T12:31:09.806Z,1005.92
2018-07-20T12:32:09.839Z,1006.01
2018-07-20T12:36:37.992Z,1005.97
2018-07-20T12:37:38.025Z,1006.01
2018-07-20T12:38:38.053Z,1006.05
2018-07-20T12:39:38.086Z,1006.01
2018-07-20T12:40:38.116Z,1005.98
2018-07-20T12:41:38.146Z,1005.97
2018-07-20T12:42:38.267Z,1006.00
2018-07-20T12:43:38.206Z,1005.95
2018-07-20T12:44:38.240Z,1005.98
2018-07-20T12:45:38.271Z,1005.92
2018-07-20T12:46:38.340Z,1005.86
2018-07-20T12:47:38.330Z,1005.75
2018-07-20T12:48:38.363Z,1005.80
2018-07-20T12:49:38.389Z,1005.81
2018-07-20T12:50:38.423Z,1005.87
2018-07-20T12:51:38.450Z,1005.85
2018-07-20T12:52:38.483Z,1005.91
2018-07-20T12:53:38.512Z,1005.94
2018-07-20T12:54:38.542Z,1006.00
2018-07-20T12:55:38.573Z,1005.93
2018-07-20T12:56:38.601Z,1005.96
2018-07-20T12:57:38.634Z,1005.93
2018-07-20T12:58:38.774Z,1005.92
2018-07-20T12:59:38.693Z,1005.88
2018-07-20T13:00:38.723Z,1005.84
2018-07-20T13:01:38.753Z,1005.85
2018-07-20T13:02:38.784Z,1005.86
2018-07-20T13:03:38.811Z,1005.81
2018-07-20T13:04:38.845Z,1005.74
2018-07-20T13:05:38.870Z,1005.75
2018-07-20T13:06:38.899Z,1005.73
2018-07-20T13:07:38.929Z,1005.70
2018-07-20T13:08:38.962Z,1005.67
2018-07-20T13:09:38.991Z,1005.69
2018-07-20T13:10:39.022Z,1005.70
2018-07-20T13:11:39.051Z,1005.66
2018-07-20T13:12:39.078Z,1005.68
2018-07-20T13:13:39.109Z,1005.68
2018-07-20T13:14:39.141Z,1005.69
2018-07-20T13:15:39.171Z,1005.64
2018-07-20T13:16:39.199Z,1005.62
2018-07-20T13:17:39.227Z,1005.61
2018-07-20T13:18:39.260Z,1005.60
2018-07-20T13:19:39.287Z,1005.54
2018-07-20T13:20:39.319Z,1005.50
2018-07-20T13:21:39.346Z,1005.52
2018-07-20T13:22:39.377Z,1005.56
2018-07-20T13:23:39.519Z,1005.57
2018-07-20T13:24:39.533Z,1005.52
2018-07-20T13:25:39.501Z,1005.53
2018-07-20T13:26:39.592Z,1005.49
2018-07-20T13:27:39.551Z,1005.46
2018-07-20T13:28:39.623Z,1005.44
2018-07-20T13:29:39.659Z,1005.48
2018-07-20T13:30:39.643Z,1005.48
2018-07-20T13:31:39.666Z,1005.49
2018-07-20T13:32:39.723Z,1005.48
2018-07-20T13:33:39.764Z,1005.48
2018-07-20T13:34:39.785Z,1005.45
2018-07-20T13:35:39.875Z,1005.47
2018-07-20T13:36:39.826Z,1005.37
2018-07-20T13:37:39.871Z,1005.34
2018-07-20T13:38:39.882Z,1005.34
2018-07-20T13:39:39.918Z,1005.29
2018-07-20T13:40:39.909Z,1005.27